Time;durP1;ratioP1;P1;durP2;ratioP2;P2;SDS_P1;SDS_P2;PMS_P1;PMS_P2;Temp;Humidity;BMP_temperature;BMP_pressure;BME280_temperature;BME280_humidity;BME280_pressure;Samples;Min_cycle;Max_cycle;Signal;HPM_P1;HPM_P2
2024/03/08 00:00:18;;;;;;;26.37;14.40;;;4.40;81.80;;;6.27;56.30;97498.91;5021227;28;20047;-42
2024/03/08 00:02:47;;;;;;;26.10;14.00;;;4.30;82.10;;;6.26;55.75;97497.22;5030278;28;20052;-43
2024/03/08 00:05:15;;;;;;;24.23;14.53;;;4.30;81.90;;;6.20;56.03;97492.50;5018366;28;20049;-43
2024/03/08 00:07:43;;;;;;;30.67;16.93;;;4.30;82.30;;;6.17;56.10;97493.59;5012461;28;20066;-43
2024/03/08 00:10:13;;;;;;;34.67;18.00;;;4.30;82.20;;;6.14;56.23;97490.41;5020272;28;20413;-43
2024/03/08 00:12:44;;;;;;;33.57;18.20;;;4.30;81.90;;;6.12;56.31;97482.59;5029816;28;20056;-42
2024/03/08 00:15:16;;;;;;;28.07;15.63;;;4.30;81.50;;;6.08;56.42;97491.78;5019830;28;20052;-45
2024/03/08 00:17:46;;;;;;;29.37;15.90;;;4.30;81.00;;;6.06;56.47;97483.97;5012344;28;20043;-43
2024/03/08 00:20:14;;;;;;;23.30;13.73;;;4.30;81.60;;;6.07;56.51;97485.66;5021554;28;20046;-44
2024/03/08 00:22:43;;;;;;;28.67;15.53;;;4.20;81.40;;;6.06;56.59;97475.22;5029544;28;20044;-42
2024/03/08 00:25:11;;;;;;;25.63;15.63;;;4.20;81.60;;;6.05;56.37;97481.50;5022005;28;20040;-43
2024/03/08 00:27:40;;;;;;;24.97;14.60;;;4.20;81.80;;;6.01;56.61;97480.94;5011187;28;20053;-43
2024/03/08 00:30:09;;;;;;;22.93;15.03;;;4.20;81.90;;;6.01;56.25;97482.72;5017638;28;20539;-42
2024/03/08 00:32:38;;;;;;;28.97;15.07;;;4.20;81.90;;;6.01;56.70;97485.34;5029504;28;20044;-44
2024/03/08 00:35:09;;;;;;;24.57;13.73;;;4.10;81.70;;;6.01;56.00;97480.94;5025966;28;20048;-44
2024/03/08 00:37:37;;;;;;;28.83;15.83;;;4.20;81.60;;;5.99;55.97;97482.03;5012608;28;20035;-43
2024/03/08 00:40:06;;;;;;;24.93;14.77;;;4.10;81.80;;;5.98;56.41;97478.53;5053612;28;20492;-43
2024/03/08 00:42:35;;;;;;;24.97;14.53;;;4.10;82.10;;;5.98;55.94;97473.25;5011906;28;20406;-42
2024/03/08 00:45:03;;;;;;;22.13;12.97;;;4.10;82.70;;;5.93;56.63;97470.16;5012030;28;20046;-43
2024/03/08 00:47:30;;;;;;;27.50;14.50;;;4.10;82.30;;;5.91;56.36;97474.75;5028991;28;20064;-42
2024/03/08 00:49:58;;;;;;;26.63;14.67;;;4.20;81.20;;;5.90;56.70;97458.06;5028709;28;20069;-44
2024/03/08 00:52:27;;;;;;;25.17;14.23;;;4.20;80.90;;;5.88;56.26;97461.81;5012130;28;20073;-43
2024/03/08 00:54:55;;;;;;;24.40;14.50;;;4.10;81.10;;;5.86;56.64;97464.59;5010467;28;20062;-43
2024/03/08 00:57:22;;;;;;;24.87;14.07;;;4.10;81.30;;;5.83;56.06;97456.09;5024665;28;20047;-44
2024/03/08 00:59:50;;;;;;;23.97;15.03;;;4.00;81.30;;;5.78;56.43;97453.88;5028446;28;20496;-43
2024/03/08 01:02:18;;;;;;;23.73;13.73;;;3.90;81.80;;;5.76;56.56;97455.81;5018831;28;20053;-43
2024/03/08 01:04:47;;;;;;;22.63;13.47;;;3.90;81.90;;;5.75;56.99;97462.06;5011379;28;20058;-45
2024/03/08 01:07:15;;;;;;;24.07;14.23;;;3.80;82.00;;;5.72;56.26;97451.78;5018826;28;20047;-43
2024/03/08 01:09:42;;;;;;;24.50;15.90;;;3.80;82.00;;;5.73;56.71;97448.97;5035248;28;20056;-45
2024/03/08 01:12:10;;;;;;;24.17;14.63;;;3.90;82.30;;;5.70;56.17;97451.09;5023637;28;20052;-43
2024/03/08 01:14:38;;;;;;;25.10;14.40;;;3.80;81.70;;;5.70;56.68;97445.81;5011356;28;20407;-44
2024/03/08 01:17:06;;;;;;;25.60;14.43;;;3.80;81.80;;;5.66;56.93;97442.59;5012013;28;20054;-44
2024/03/08 01:19:34;;;;;;;23.57;14.73;;;3.80;82.00;;;5.64;57.02;97443.66;5028158;28;20044;-43
2024/03/08 01:22:01;;;;;;;27.40;14.53;;;3.70;81.90;;;5.62;57.00;97438.56;5028748;28;20036;-44
2024/03/08 01:24:29;;;;;;;24.30;14.23;;;3.70;82.10;;;5.58;56.99;97438.94;5010196;28;20042;-43
2024/03/08 01:26:56;;;;;;;23.40;13.60;;;3.70;82.20;;;5.55;56.17;97432.13;5010772;28;20046;-43
2024/03/08 01:29:24;;;;;;;24.93;13.87;;;3.60;82.00;;;5.53;56.51;97428.78;5022137;28;20043;-43
2024/03/08 01:31:52;;;;;;;22.33;12.93;;;3.60;82.70;;;5.51;56.92;97433.38;5028491;28;20067;-44
2024/03/08 01:34:20;;;;;;;20.63;12.90;;;3.50;82.50;;;5.46;56.87;97425.84;5018180;28;20040;-44
2024/03/08 01:36:47;;;;;;;24.53;13.33;;;3.50;83.20;;;5.46;56.72;97417.09;5011563;28;20043;-43
2024/03/08 01:39:15;;;;;;;22.57;13.77;;;3.50;82.80;;;5.45;57.17;97410.97;5016041;28;20046;-43
2024/03/08 01:41:42;;;;;;;23.20;13.77;;;3.60;82.80;;;5.42;56.64;97416.50;5028426;28;20411;-43
2024/03/08 01:44:10;;;;;;;28.07;13.73;;;3.50;83.00;;;5.41;56.38;97411.34;5026466;28;20514;-44
2024/03/08 01:46:38;;;;;;;22.17;13.93;;;3.50;82.60;;;5.38;56.55;97399.28;5011132;28;20042;-43
2024/03/08 01:49:05;;;;;;;23.23;14.27;;;3.50;82.60;;;5.37;56.93;97402.03;4999784;28;20052;-44
2024/03/08 01:51:33;;;;;;;27.07;16.57;;;3.50;83.50;;;5.32;56.31;97392.72;5026817;28;20048;-44
2024/03/08 01:54:03;;;;;;;28.77;16.07;;;3.40;83.30;;;5.31;56.52;97392.84;5028094;28;20049;-44
2024/03/08 01:56:31;;;;;;;28.07;15.40;;;3.40;82.70;;;5.28;56.03;97388.69;5012101;28;20051;-42
2024/03/08 01:59:00;;;;;;;24.97;15.73;;;3.30;82.70;;;5.26;56.96;97381.88;5009523;28;20243;-43
2024/03/08 02:01:28;;;;;;;26.97;15.13;;;3.40;82.90;;;5.25;56.25;97380.19;5024549;28;20054;-45
2024/03/08 02:03:56;;;;;;;33.60;19.43;;;3.40;82.50;;;5.20;57.21;97383.25;5028853;28;20036;-44
2024/03/08 02:06:24;;;;;;;31.50;16.73;;;3.40;82.20;;;5.17;56.39;97378.22;5017969;28;20048;-44
2024/03/08 02:08:52;;;;;;;25.27;15.73;;;3.20;82.30;;;5.13;56.56;97376.81;5009133;28;20066;-44
2024/03/08 02:11:20;;;;;;;25.23;14.93;;;3.20;82.60;;;5.10;56.38;97370.03;5019216;28;20494;-44
2024/03/08 02:13:48;;;;;;;29.00;17.10;;;3.10;82.80;;;5.09;57.12;97364.88;5031915;28;20048;-44
2024/03/08 02:16:22;;;;;;;30.83;16.87;;;3.10;83.10;;;5.08;56.22;97357.94;5027759;28;20063;-44
2024/03/08 02:18:50;;;;;;;29.27;17.17;;;3.10;83.20;;;5.06;56.45;97355.44;5013977;28;20047;-44
2024/03/08 02:21:18;;;;;;;30.07;16.37;;;3.10;82.90;;;5.04;57.23;97357.38;5017130;28;20050;-44
2024/03/08 02:23:46;;;;;;;25.63;14.57;;;3.10;83.10;;;5.02;56.78;97355.81;5031543;28;20047;-43
2024/03/08 02:26:14;;;;;;;30.07;15.27;;;3.00;83.50;;;5.00;56.50;97347.19;5027870;28;20049;-43
2024/03/08 02:28:43;;;;;;;29.73;16.37;;;3.00;83.10;;;4.98;57.18;97349.97;5013185;28;20055;-43
2024/03/08 02:31:11;;;;;;;27.27;14.80;;;3.10;83.00;;;5.00;57.29;97344.56;5014475;28;20418;-43
2024/03/08 02:33:39;;;;;;;27.10;16.23;;;3.00;83.10;;;4.97;57.37;97339.56;5005328;28;20051;-43
2024/03/08 02:36:07;;;;;;;27.80;14.90;;;3.00;83.10;;;4.95;57.13;97344.16;5013542;28;20054;-43
2024/03/08 02:38:36;;;;;;;25.67;15.47;;;3.00;83.10;;;4.92;56.85;97339.94;5029993;28;20037;-44
2024/03/08 02:41:03;;;;;;;23.20;13.00;;;3.00;83.00;;;4.90;56.90;97339.25;5031048;28;20036;-43
2024/03/08 02:43:31;;;;;;;27.03;13.80;;;3.00;83.30;;;4.86;56.87;97333.41;5018137;28;20456;-43
2024/03/08 02:45:59;;;;;;;22.03;13.67;;;3.00;83.40;;;4.86;56.68;97332.56;5012463;28;20043;-44
2024/03/08 02:48:27;;;;;;;24.17;14.53;;;3.00;83.30;;;4.84;57.10;97332.69;5023404;28;20046;-44
2024/03/08 02:50:55;;;;;;;22.70;13.43;;;3.10;82.90;;;4.86;57.51;97335.22;5030702;28;20049;-43
2024/03/08 02:53:24;;;;;;;25.50;14.43;;;3.10;82.60;;;4.85;56.81;97333.56;5024827;28;20095;-44
2024/03/08 02:55:52;;;;;;;24.33;14.30;;;3.10;82.70;;;4.86;56.77;97327.28;5013601;28;20051;-44
2024/03/08 02:58:19;;;;;;;24.67;14.80;;;3.00;82.80;;;4.86;56.95;97329.94;5017290;28;20039;-44
2024/03/08 03:00:47;;;;;;;24.13;13.40;;;3.00;82.80;;;4.83;57.52;97325.78;5030631;28;20042;-43
2024/03/08 03:03:15;;;;;;;24.30;16.13;;;3.00;82.30;;;4.81;57.37;97322.44;5029607;28;20041;-44
2024/03/08 03:05:42;;;;;;;25.73;13.20;;;2.90;82.60;;;4.79;56.94;97320.88;5013493;28;20051;-44
2024/03/08 03:08:16;;;;;;;22.60;13.27;;;2.80;82.80;;;4.77;56.80;97314.91;5012697;28;20059;-44
2024/03/08 03:10:44;;;;;;;24.27;13.20;;;2.80;83.00;;;4.76;56.73;97311.44;5030173;28;20048;-45
2024/03/08 03:13:12;;;;;;;20.73;11.37;;;2.80;82.70;;;4.73;56.99;97311.72;5029545;28;20064;-44
2024/03/08 03:15:43;;;;;;;21.23;12.27;;;2.80;82.90;;;4.71;57.08;97314.47;5013494;28;20051;-44
2024/03/08 03:18:11;;;;;;;20.40;12.73;;;2.80;82.50;;;4.69;57.03;97305.88;5013285;28;20434;-43
2024/03/08 03:20:42;;;;;;;19.33;12.23;;;2.70;82.70;;;4.68;57.36;97303.34;5028741;28;20045;-44
2024/03/08 03:23:14;;;;;;;23.43;12.03;;;2.70;82.80;;;4.61;57.22;97307.47;5029891;28;20051;-43
2024/03/08 03:25:43;;;;;;;19.37;11.60;;;2.80;82.90;;;4.55;57.88;97308.84;5005673;28;20055;-43
2024/03/08 03:28:14;;;;;;;21.27;12.83;;;2.70;83.20;;;4.54;57.90;97305.38;5012512;28;20051;-44
2024/03/08 03:30:43;;;;;;;28.53;12.83;;;2.70;82.90;;;4.55;57.51;97306.19;5013096;28;20057;-44
2024/03/08 03:33:12;;;;;;;24.53;12.57;;;2.70;83.00;;;4.55;57.78;97293.03;5012885;28;20054;-46
2024/03/08 03:35:41;;;;;;;22.53;13.03;;;2.70;83.10;;;4.54;57.54;97292.19;5028943;28;20049;-44
2024/03/08 03:38:09;;;;;;;18.53;11.77;;;2.70;83.00;;;4.51;57.29;97288.97;5030248;28;20044;-43
2024/03/08 03:40:40;;;;;;;21.20;12.13;;;2.60;83.00;;;4.51;57.59;97289.81;5015554;28;20051;-44
2024/03/08 03:43:09;;;;;;;23.13;12.00;;;2.60;82.90;;;4.51;57.74;97278.44;5012720;28;20494;-43
2024/03/08 03:45:39;;;;;;;21.10;11.87;;;2.60;83.10;;;4.50;57.64;97287.34;5026196;28;20047;-44
2024/03/08 03:48:10;;;;;;;20.63;12.03;;;2.60;83.00;;;4.50;57.40;97279.41;5028991;28;20381;-44
2024/03/08 03:50:39;;;;;;;21.80;11.47;;;2.60;82.70;;;4.49;57.05;97286.47;4998120;28;20051;-44
2024/03/08 03:53:08;;;;;;;24.60;12.67;;;2.60;82.80;;;4.48;56.92;97281.34;5012906;28;20047;-43
2024/03/08 03:55:38;;;;;;;19.40;11.33;;;2.60;82.80;;;4.47;57.18;97282.31;5003534;28;20514;-42
2024/03/08 03:58:09;;;;;;;20.57;12.83;;;2.50;83.00;;;4.46;57.26;97284.13;5012552;28;20391;-42
2024/03/08 04:00:39;;;;;;;21.20;12.20;;;2.50;82.50;;;4.43;56.72;97280.91;5025142;28;20058;-43
2024/03/08 04:03:08;;;;;;;23.03;11.93;;;2.50;82.40;;;4.38;56.98;97280.44;5029539;28;20047;-43
2024/03/08 04:05:36;;;;;;;22.50;12.00;;;2.40;83.00;;;4.34;57.56;97278.09;5018455;28;20037;-43
2024/03/08 04:08:04;;;;;;;20.10;12.20;;;2.30;83.00;;;4.34;57.08;97277.25;5012625;28;20053;-44
2024/03/08 04:10:31;;;;;;;25.00;13.07;;;2.40;83.10;;;4.32;57.10;97281.81;5019594;28;20051;-44
2024/03/08 04:12:59;;;;;;;23.53;11.93;;;2.40;83.20;;;4.29;57.73;97275.00;5029720;28;20048;-44
2024/03/08 04:15:27;;;;;;;22.37;10.90;;;2.40;82.90;;;4.27;57.86;97271.66;5025511;28;20408;-45
2024/03/08 04:17:54;;;;;;;19.70;11.63;;;2.50;83.00;;;4.26;57.60;97271.78;4987122;28;20055;-45
2024/03/08 04:20:22;;;;;;;19.37;11.83;;;2.50;82.50;;;4.25;58.07;97268.34;5028321;28;20132;-45
2024/03/08 04:22:50;;;;;;;20.77;11.80;;;2.50;82.90;;;4.26;57.38;97269.16;5010817;28;20398;-46
2024/03/08 04:25:17;;;;;;;19.93;12.10;;;2.50;83.00;;;4.24;57.56;97258.75;5008181;28;20047;-45
2024/03/08 04:27:46;;;;;;;18.77;11.70;;;2.40;82.80;;;4.22;57.06;97260.69;5027498;28;20514;-45
2024/03/08 04:30:14;;;;;;;20.23;11.77;;;2.40;82.90;;;4.22;57.24;97273.03;5029032;28;20155;-46
2024/03/08 04:32:42;;;;;;;22.70;11.60;;;2.30;83.40;;;4.21;57.36;97266.94;5015383;28;20409;-45
2024/03/08 04:35:12;;;;;;;17.57;10.83;;;2.30;83.30;;;4.21;56.75;97261.66;5011968;28;20038;-44
2024/03/08 04:37:40;;;;;;;19.60;10.70;;;2.40;83.20;;;4.21;57.60;97261.66;5023754;28;20050;-45
2024/03/08 04:40:08;;;;;;;18.83;11.07;;;2.40;82.70;;;4.21;57.17;97264.28;5028675;28;20067;-45
2024/03/08 04:42:38;;;;;;;19.67;11.17;;;2.40;82.80;;;4.22;57.66;97258.03;5020913;28;20095;-44
2024/03/08 04:45:07;;;;;;;21.47;11.47;;;2.40;82.70;;;4.22;57.06;97254.59;5010754;28;20049;-44
2024/03/08 04:47:36;;;;;;;22.50;12.33;;;2.40;82.90;;;4.18;57.47;97253.19;5019605;28;20034;-44
2024/03/08 04:50:05;;;;;;;20.30;11.00;;;2.30;82.60;;;4.18;57.33;97251.38;5027422;28;20040;-44
2024/03/08 04:52:33;;;;;;;23.53;12.17;;;2.40;83.20;;;4.19;57.74;97249.56;5023061;28;20040;-45
2024/03/08 04:55:04;;;;;;;19.77;11.80;;;2.40;82.80;;;4.19;57.68;97249.56;5011659;28;20525;-44
2024/03/08 04:57:31;;;;;;;21.03;11.20;;;2.40;82.90;;;4.17;57.06;97257.63;5016078;28;20047;-44
2024/03/08 04:59:59;;;;;;;25.40;11.97;;;2.30;82.40;;;4.15;57.49;97249.00;5028332;28;20043;-45
2024/03/08 05:02:27;;;;;;;20.10;12.23;;;2.30;82.60;;;4.13;57.32;97243.88;5028001;28;20514;-45
2024/03/08 05:04:55;;;;;;;20.70;11.47;;;2.30;82.80;;;4.12;57.55;97244.00;5011607;28;20038;-46
2024/03/08 05:07:22;;;;;;;21.07;12.03;;;2.30;82.50;;;4.11;57.75;97242.31;5011501;28;20045;-44
2024/03/08 05:09:51;;;;;;;23.17;11.03;;;2.30;82.90;;;4.12;57.59;97247.44;5026947;28;20530;-45
2024/03/08 05:12:19;;;;;;;18.77;11.67;;;2.30;83.00;;;4.10;57.67;97240.66;5027041;28;20044;-44
2024/03/08 05:14:49;;;;;;;19.73;11.03;;;2.30;83.20;;;4.06;57.82;97241.88;5013802;28;20106;-44
2024/03/08 05:17:17;;;;;;;21.73;11.33;;;2.20;82.60;;;4.04;57.94;97235.91;5011100;28;20540;-44
2024/03/08 05:19:45;;;;;;;19.83;11.23;;;2.20;82.80;;;4.05;57.54;97235.78;5021772;28;20513;-45
2024/03/08 05:22:13;;;;;;;19.93;11.57;;;2.20;82.60;;;4.03;57.44;97243.00;5028723;28;20487;-45
2024/03/08 05:24:41;;;;;;;18.93;12.47;;;2.20;82.50;;;4.03;57.27;97236.88;5019278;28;20419;-45
2024/03/08 05:27:09;;;;;;;20.73;10.87;;;2.20;82.60;;;4.01;57.49;97237.00;5011327;28;20047;-45
2024/03/08 05:29:37;;;;;;;21.70;11.10;;;2.20;82.90;;;4.02;57.73;97241.31;5016473;28;20494;-46
2024/03/08 05:32:06;;;;;;;22.53;12.10;;;2.20;83.20;;;4.03;57.91;97240.34;5028663;28;20052;-44
2024/03/08 05:34:34;;;;;;;18.17;10.53;;;2.20;83.20;;;4.02;57.53;97235.22;5024706;28;20049;-45
2024/03/08 05:37:02;;;;;;;21.57;11.70;;;2.20;83.10;;;4.02;57.68;97238.69;5011179;28;20039;-44
2024/03/08 05:39:30;;;;;;;26.27;13.50;;;2.10;83.10;;;4.01;57.91;97234.34;5010904;28;20110;-44
2024/03/08 05:41:57;;;;;;;21.53;11.33;;;2.10;82.80;;;4.01;57.56;97233.53;5027144;28;20040;-44
2024/03/08 05:44:28;;;;;;;22.43;11.70;;;2.10;83.10;;;3.99;57.78;97231.03;5027293;28;20525;-44
2024/03/08 05:46:56;;;;;;;24.70;12.53;;;2.20;83.00;;;3.98;57.15;97239.06;5005715;28;20099;-44
2024/03/08 05:49:24;;;;;;;20.87;11.73;;;2.10;83.30;;;3.97;57.62;97232.94;5014258;28;20046;-44
2024/03/08 05:51:54;;;;;;;21.40;13.17;;;2.20;83.30;;;4.00;57.89;97234.50;5029781;28;20040;-44
2024/03/08 05:54:24;;;;;;;22.63;12.03;;;2.10;83.20;;;4.00;58.08;97229.25;5032103;28;20052;-45
2024/03/08 05:56:52;;;;;;;23.83;13.20;;;2.20;83.50;;;4.00;57.94;97227.44;5017284;28;20070;-45
2024/03/08 05:59:23;;;;;;;21.00;12.00;;;2.20;82.90;;;4.01;57.81;97223.00;5013137;28;20071;-44
2024/03/08 06:01:50;;;;;;;24.23;12.73;;;2.20;83.10;;;4.01;57.85;97226.44;5005731;28;20040;-44
2024/03/08 06:04:18;;;;;;;24.67;11.27;;;2.30;83.30;;;4.00;58.15;97218.72;5014436;28;20058;-44
2024/03/08 06:06:46;;;;;;;23.33;12.13;;;2.30;83.10;;;4.02;57.91;97219.41;5024496;28;20505;-44
2024/03/08 06:09:22;;;;;;;21.00;11.30;;;2.30;83.40;;;4.04;57.98;97220.09;5031478;28;20067;-44
2024/03/08 06:11:54;;;;;;;22.30;11.10;;;2.30;83.00;;;4.07;58.38;97220.69;5018416;28;20032;-45
2024/03/08 06:14:23;;;;;;;21.33;12.47;;;2.30;83.30;;;4.10;57.86;97228.31;5014637;28;20043;-44
2024/03/08 06:16:51;;;;;;;20.90;11.13;;;2.30;83.40;;;4.10;57.52;97220.41;5026068;28;20054;-44
2024/03/08 06:19:18;;;;;;;20.57;11.93;;;2.30;82.90;;;4.11;58.04;97230.00;5031407;28;20043;-43
2024/03/08 06:21:46;;;;;;;22.50;12.87;;;2.30;83.20;;;4.12;57.53;97222.91;5022631;28;20531;-43
2024/03/08 06:24:14;;;;;;;24.60;12.83;;;2.30;83.40;;;4.13;57.68;97227.22;5014189;28;20052;-43
2024/03/08 06:26:42;;;;;;;23.63;12.47;;;2.30;83.50;;;4.13;57.63;97224.59;5020043;28;20054;-43
2024/03/08 06:29:10;;;;;;;20.90;12.80;;;2.40;83.00;;;4.13;58.46;97217.53;5031288;28;20084;-43
2024/03/08 06:31:38;;;;;;;24.60;13.23;;;2.30;83.20;;;4.17;57.66;97225.16;5017534;28;20051;-44
2024/03/08 06:34:07;;;;;;;22.63;12.40;;;2.30;83.70;;;4.16;58.03;97226.13;5030172;28;20059;-44
2024/03/08 06:36:37;;;;;;;23.00;12.93;;;2.30;83.70;;;4.17;57.94;97230.41;5030337;28;20041;-45
2024/03/08 06:39:09;;;;;;;21.33;12.20;;;2.30;84.10;;;4.16;57.71;97231.41;5012386;28;20050;-44
2024/03/08 06:41:37;;;;;;;24.93;13.40;;;2.40;83.50;;;4.18;58.39;97232.94;5015057;28;20057;-45
2024/03/08 06:44:05;;;;;;;22.73;12.70;;;2.40;83.60;;;4.19;58.43;97228.47;5031340;28;20043;-43
2024/03/08 06:46:33;;;;;;;22.27;12.73;;;2.40;83.00;;;4.23;58.23;97228.09;5030251;28;20284;-43
2024/03/08 06:49:03;;;;;;;23.27;13.07;;;2.40;83.10;;;4.26;57.72;97229.63;5005701;28;20050;-43
2024/03/08 06:51:30;;;;;;;27.57;13.17;;;2.50;83.20;;;4.28;58.40;97225.88;5014005;28;20050;-43
2024/03/08 06:53:58;;;;;;;22.20;12.23;;;2.50;83.40;;;4.30;58.24;97224.00;5029252;28;20490;-43
2024/03/08 06:56:26;;;;;;;23.50;13.43;;;2.50;83.50;;;4.32;58.53;97224.69;5031093;28;20415;-44
2024/03/08 06:58:53;;;;;;;25.27;14.17;;;2.50;83.60;;;4.35;57.95;97220.94;5018597;28;20047;-44
2024/03/08 07:01:22;;;;;;;25.00;12.57;;;2.50;83.80;;;4.38;58.48;97233.00;5012470;28;20051;-43
2024/03/08 07:03:52;;;;;;;26.13;14.00;;;2.50;83.70;;;4.40;58.18;97221.38;5022817;28;20046;-41
2024/03/08 07:06:20;;;;;;;25.00;14.23;;;2.60;83.70;;;4.42;57.77;97224.72;5029955;28;20040;-41
2024/03/08 07:08:48;;;;;;;21.27;13.27;;;2.60;83.30;;;4.41;57.97;97223.03;5022703;28;20040;-42
2024/03/08 07:11:18;;;;;;;22.87;12.10;;;2.60;83.60;;;4.42;58.00;97222.09;5013470;28;20289;-42
2024/03/08 07:13:46;;;;;;;26.57;13.77;;;2.70;83.40;;;4.45;58.54;97224.44;5019410;28;20427;-41
2024/03/08 07:16:14;;;;;;;20.70;12.50;;;2.70;83.10;;;4.48;58.05;97221.56;4985323;28;20046;-41
2024/03/08 07:18:43;;;;;;;24.40;11.63;;;2.70;83.20;;;4.50;58.53;97224.06;5015553;28;20056;-41
2024/03/08 07:21:11;;;;;;;24.63;14.73;;;2.70;83.20;;;4.50;58.03;97221.44;5012937;28;20043;-41
2024/03/08 07:26:25;;;;;;;28.00;14.40;;;2.80;83.00;;;4.58;58.72;97218.13;5027841;28;20040;-41
2024/03/08 07:28:54;;;;;;;27.90;13.63;;;2.90;83.30;;;4.61;58.48;97210.75;5019877;28;20480;-41
2024/03/08 07:34:07;;;;;;;28.87;14.43;;;3.00;83.50;;;4.73;59.26;97214.97;5030305;28;20079;-41
2024/03/08 07:36:35;;;;;;;23.57;13.87;;;3.00;83.20;;;4.81;58.83;97214.28;5030314;28;20041;-41
2024/03/08 07:39:05;;;;;;;29.97;14.43;;;3.10;83.30;;;4.90;58.90;97207.34;5014125;28;20058;-41
2024/03/08 07:41:36;;;;;;;20.63;12.50;;;3.30;83.10;;;4.97;58.61;97200.56;5012943;28;20039;-42
2024/03/08 07:44:05;;;;;;;22.77;13.37;;;3.40;82.70;;;5.05;58.63;97213.06;5029527;28;20036;-42
2024/03/08 07:46:36;;;;;;;25.27;13.70;;;3.50;82.00;;;5.16;58.13;97212.09;5030693;28;20039;-41
2024/03/08 07:49:04;;;;;;;25.73;14.00;;;3.60;81.60;;;5.22;58.17;97209.75;5027287;28;20048;-41
2024/03/08 07:51:34;;;;;;;22.37;12.73;;;3.60;81.80;;;5.29;58.47;97207.38;5030346;28;20033;-41
2024/03/08 07:54:04;;;;;;;22.37;13.30;;;3.70;81.60;;;5.37;58.57;97202.28;5015733;28;20061;-41
2024/03/08 07:56:32;;;;;;;23.23;13.27;;;3.70;81.70;;;5.41;58.32;97205.44;5012711;28;20186;-41
2024/03/08 07:58:59;;;;;;;20.90;11.97;;;3.80;81.20;;;5.44;58.44;97197.25;5024994;28;20055;-41
2024/03/08 08:01:27;;;;;;;22.70;13.27;;;3.90;81.10;;;5.44;58.27;97198.06;5029856;28;20056;-43
2024/03/08 08:03:56;;;;;;;21.13;12.80;;;3.90;80.00;;;5.51;58.58;97196.56;5020930;28;20424;-43
2024/03/08 08:06:25;;;;;;;22.13;13.33;;;4.00;80.00;;;5.62;57.92;97194.72;5011138;28;20047;-45
2024/03/08 08:08:53;;;;;;;20.13;11.90;;;4.10;79.80;;;5.69;57.86;97196.66;5018574;28;20366;-44
2024/03/08 08:11:21;;;;;;;21.87;13.50;;;4.10;79.60;;;5.74;58.03;97190.97;5028585;28;20055;-45
2024/03/08 08:13:48;;;;;;;25.73;14.03;;;4.20;78.60;;;5.81;58.25;97199.16;5025679;28;20052;-45
2024/03/08 08:16:16;;;;;;;21.13;12.03;;;4.30;78.00;;;5.85;58.19;97204.00;5010602;28;20517;-45
2024/03/08 08:18:46;;;;;;;22.57;12.50;;;4.30;77.90;;;5.89;58.06;97197.47;5012102;28;20050;-45
2024/03/08 08:21:13;;;;;;;20.43;12.20;;;4.40;77.70;;;5.96;58.17;97203.03;5029534;28;20036;-44
2024/03/08 08:23:41;;;;;;;25.47;13.03;;;4.40;77.30;;;6.01;57.52;97194.66;5029761;28;20044;-47
2024/03/08 08:26:11;;;;;;;25.87;14.77;;;4.50;77.10;;;6.05;57.61;97188.16;5012478;28;20038;-45
2024/03/08 08:28:40;;;;;;;21.40;12.97;;;4.50;77.00;;;6.08;56.76;97188.66;5010828;28;20057;-46
2024/03/08 08:31:08;;;;;;;22.37;12.90;;;4.50;75.60;;;6.08;57.01;97178.09;5026990;28;20048;-46
2024/03/08 08:33:36;;;;;;;22.50;11.97;;;4.50;75.90;;;6.10;57.13;97172.66;5028250;28;20040;-45
2024/03/08 08:36:04;;;;;;;20.07;12.47;;;4.60;75.90;;;6.17;57.03;97176.41;5017163;28;20614;-45
2024/03/08 08:38:32;;;;;;;24.30;12.30;;;4.60;75.70;;;6.22;56.48;97171.53;5012132;28;20421;-46
2024/03/08 08:40:59;;;;;;;19.30;11.53;;;4.70;75.40;;;6.21;56.66;97175.13;5018380;28;20403;-46
2024/03/08 08:43:28;;;;;;;22.93;13.23;;;4.70;73.60;;;6.19;57.04;97165.69;5029368;28;20040;-50
2024/03/08 08:45:56;;;;;;;18.20;11.90;;;4.80;74.10;;;6.26;56.87;97169.41;5023960;28;20045;-45
2024/03/08 08:48:24;;;;;;;19.87;11.97;;;4.80;74.00;;;6.27;56.53;97171.09;5012171;28;20065;-47
2024/03/08 08:50:52;;;;;;;22.30;12.87;;;4.90;74.00;;;6.30;55.95;97169.00;5012309;28;20047;-47
2024/03/08 08:53:20;;;;;;;22.93;12.93;;;4.90;74.10;;;6.35;56.29;97167.72;5028949;28;20047;-46
2024/03/08 08:55:48;;;;;;;22.73;13.53;;;4.90;74.40;;;6.40;56.27;97168.13;5028917;28;20048;-47
2024/03/08 08:58:15;;;;;;;19.57;12.97;;;4.90;74.30;;;6.49;56.65;97161.91;5028841;28;20733;-47
2024/03/08 09:00:44;;;;;;;20.63;11.63;;;5.00;74.30;;;6.54;55.99;97170.25;5029053;28;20044;-46
2024/03/08 09:03:12;;;;;;;21.97;13.77;;;5.00;72.00;;;6.45;56.01;97165.84;5013907;28;20062;-46
2024/03/08 09:05:42;;;;;;;20.17;12.00;;;5.00;73.30;;;6.46;55.72;97168.34;5011314;28;20051;-47
2024/03/08 09:08:12;;;;;;;23.40;13.23;;;5.00;73.40;;;6.46;55.96;97164.88;5025792;28;20411;-47
2024/03/08 09:10:40;;;;;;;20.50;11.50;;;5.10;73.30;;;6.48;55.87;97170.84;5026765;28;20049;-46
2024/03/08 09:13:10;;;;;;;20.83;13.17;;;5.10;72.80;;;6.53;56.06;97160.66;5016539;28;20056;-46
2024/03/08 09:15:44;;;;;;;20.83;11.97;;;5.20;72.60;;;6.60;55.54;97163.53;5011802;28;20540;-46
2024/03/08 09:18:12;;;;;;;22.33;12.87;;;5.20;72.40;;;6.61;55.88;97159.91;5026022;28;20420;-46
2024/03/08 09:20:41;;;;;;;21.00;13.07;;;5.20;73.40;;;6.68;55.53;97153.88;5027517;28;20052;-48
2024/03/08 09:23:08;;;;;;;18.60;12.23;;;5.20;73.90;;;6.67;55.54;97157.53;5016724;28;20530;-47
2024/03/08 09:25:37;;;;;;;19.80;12.20;;;5.20;73.60;;;6.70;55.57;97141.31;5011315;28;20050;-47
2024/03/08 09:28:05;;;;;;;20.50;12.87;;;5.20;74.30;;;6.75;55.81;97140.91;5019176;28;20051;-46
2024/03/08 09:30:35;;;;;;;19.73;12.37;;;5.20;74.10;;;6.77;55.93;97140.75;5028386;28;20111;-46
2024/03/08 09:33:02;;;;;;;23.77;13.90;;;5.20;73.70;;;6.82;55.63;97143.78;5021502;28;20041;-47
2024/03/08 09:35:30;;;;;;;23.23;12.43;;;5.20;73.50;;;6.87;55.23;97136.22;5023231;28;20054;-47
2024/03/08 09:37:58;;;;;;;19.80;12.60;;;5.20;74.20;;;6.92;55.15;97141.91;5015463;28;20046;-47
2024/03/08 09:40:27;;;;;;;23.17;12.77;;;5.20;74.20;;;6.95;55.14;97146.88;5029223;28;20056;-45
2024/03/08 09:42:55;;;;;;;21.23;12.37;;;5.30;74.50;;;6.86;55.04;97140.69;5025767;28;20043;-45
2024/03/08 09:45:24;;;;;;;23.53;13.00;;;5.30;73.60;;;6.90;55.87;97133.25;5010942;28;20054;-46
2024/03/08 09:47:54;;;;;;;28.10;13.77;;;5.40;73.70;;;6.93;55.27;97132.16;4985692;28;20429;-45
2024/03/08 09:50:22;;;;;;;21.37;12.13;;;5.40;73.70;;;6.90;55.32;97135.91;4966572;28;20309;-46
2024/03/08 09:52:50;;;;;;;19.17;12.30;;;5.40;73.80;;;6.97;55.63;97133.50;4963970;28;20043;-46
2024/03/08 09:55:21;;;;;;;22.03;13.47;;;5.40;73.90;;;7.01;55.57;97137.50;4965832;28;20046;-46
2024/03/08 10:00:39;;;;;;;19.53;12.40;;;5.50;73.60;;;7.08;55.25;97122.69;4961888;28;20069;-46
2024/03/08 10:03:08;;;;;;;22.80;13.77;;;5.60;73.30;;;7.15;54.99;97130.84;4963463;28;20050;-45
2024/03/08 10:05:38;;;;;;;21.80;12.37;;;5.60;73.70;;;7.16;54.51;97125.41;4965491;28;20046;-46
2024/03/08 10:08:06;;;;;;;22.77;12.63;;;5.60;72.30;;;7.08;54.56;97122.69;4966204;28;20047;-47
2024/03/08 10:10:35;;;;;;;19.60;12.07;;;5.60;72.00;;;7.12;54.96;97121.41;4968477;28;20043;-46
2024/03/08 10:13:07;;;;;;;19.77;12.13;;;5.60;72.10;;;7.19;54.55;97116.31;4963613;28;20486;-46
2024/03/08 10:15:36;;;;;;;23.17;13.73;;;5.70;72.30;;;7.21;54.88;97115.19;4963988;28;20046;-46
2024/03/08 10:18:04;;;;;;;20.00;12.80;;;5.80;72.70;;;7.29;54.68;97112.63;4963460;28;20042;-46
2024/03/08 10:20:35;;;;;;;19.73;12.70;;;5.80;72.50;;;7.37;54.72;97111.03;4963320;28;20051;-47
2024/03/08 10:23:05;;;;;;;21.43;10.97;;;5.90;72.50;;;7.38;54.69;97105.53;4964412;28;20090;-48
2024/03/08 10:25:38;;;;;;;19.47;11.87;;;5.90;71.70;;;7.46;54.64;97108.28;4964346;28;20510;-45
2024/03/08 10:28:06;;;;;;;20.83;12.47;;;6.00;71.70;;;7.53;54.56;97103.19;4964186;28;20394;-48
2024/03/08 10:30:34;;;;;;;22.40;12.30;;;6.10;70.60;;;7.59;54.30;97099.91;4963720;28;20062;-49
2024/03/08 10:33:05;;;;;;;20.23;12.87;;;6.10;70.80;;;7.62;54.22;97094.31;4967415;28;20054;-48